Time;durP1;ratioP1;P1;durP2;ratioP2;P2;SDS_P1;SDS_P2;PMS_P1;PMS_P2;Temp;Humidity;BMP_temperature;BMP_pressure;BME280_temperature;BME280_humidity;BME280_pressure;Samples;Min_cycle;Max_cycle;Signal;HPM_P1;HPM_P2
2021/05/16 00:00:25;;;;;;;9.57;3.10;;;9.90;90.10;;;;;;5055434;28;20021;-37
2021/05/16 00:02:52;;;;;;;11.95;4.78;;;10.00;89.80;;;;;;5055493;28;20021;-36
2021/05/16 00:05:21;;;;;;;13.18;3.78;;;10.10;89.80;;;;;;5054547;28;20052;-44
2021/05/16 00:07:46;;;;;;;10.55;3.40;;;10.20;89.50;;;;;;5055378;28;20052;-37
2021/05/16 00:10:14;;;;;;;13.60;3.70;;;10.10;89.90;;;;;;5054985;28;20021;-37
2021/05/16 00:12:40;;;;;;;12.30;4.22;;;10.10;89.70;;;;;;5054868;28;20021;-37
2021/05/16 00:15:09;;;;;;;18.10;5.07;;;10.20;89.80;;;;;;5054923;28;20036;-37
2021/05/16 00:17:35;;;;;;;8.63;3.22;;;10.10;89.70;;;;;;5054863;28;20100;-36
2021/05/16 00:20:03;;;;;;;15.32;3.97;;;10.20;89.50;;;;;;5055316;28;20473;-36
2021/05/16 00:22:28;;;;;;;15.88;3.53;;;10.30;89.70;;;;;;5054799;28;20358;-36
2021/05/16 00:24:54;;;;;;;11.15;3.65;;;10.20;89.90;;;;;;5054707;28;20043;-37
2021/05/16 00:27:19;;;;;;;10.55;3.33;;;10.30;89.50;;;;;;5054979;28;20035;-39
2021/05/16 00:29:45;;;;;;;9.27;3.78;;;10.30;89.30;;;;;;5054648;28;20365;-37
2021/05/16 00:32:11;;;;;;;8.65;2.97;;;10.20;90.10;;;;;;5054357;28;20024;-36
2021/05/16 00:34:36;;;;;;;18.70;4.10;;;10.20;89.90;;;;;;5054468;28;20036;-36
2021/05/16 00:37:02;;;;;;;18.20;3.25;;;10.30;90.20;;;;;;5054272;28;20021;-36
2021/05/16 00:39:28;;;;;;;7.07;2.83;;;10.20;89.90;;;;;;5054277;28;20436;-36
2021/05/16 00:41:54;;;;;;;13.05;3.67;;;10.20;89.60;;;;;;5054728;28;20048;-36
2021/05/16 00:44:21;;;;;;;13.88;3.38;;;10.20;89.60;;;;;;5054110;28;20111;-36
2021/05/16 00:46:47;;;;;;;13.45;6.35;;;10.20;89.60;;;;;;5054109;28;20075;-36
2021/05/16 00:49:14;;;;;;;8.35;4.00;;;10.10;90.00;;;;;;5052806;28;20115;-37
2021/05/16 00:51:41;;;;;;;10.25;3.53;;;10.20;89.80;;;;;;5052545;28;20053;-36
2021/05/16 00:54:07;;;;;;;12.57;3.83;;;10.20;89.60;;;;;;5054233;28;20376;-37
2021/05/16 00:56:33;;;;;;;15.40;4.53;;;10.30;89.60;;;;;;5054217;28;20029;-37
2021/05/16 00:58:59;;;;;;;12.57;3.80;;;10.30;89.20;;;;;;5052566;28;20075;-38
2021/05/16 01:01:26;;;;;;;9.25;2.88;;;10.30;88.90;;;;;;5053837;28;20067;-36
2021/05/16 01:03:53;;;;;;;12.55;3.53;;;10.30;88.90;;;;;;5053644;28;20021;-37
2021/05/16 01:06:19;;;;;;;15.07;3.70;;;10.10;89.70;;;;;;5053787;28;20025;-36
2021/05/16 01:08:49;;;;;;;12.40;2.97;;;10.20;89.60;;;;;;5053495;28;20523;-35
2021/05/16 01:11:16;;;;;;;9.82;3.22;;;10.10;89.30;;;;;;5052673;28;20119;-37
2021/05/16 01:13:46;;;;;;;17.35;6.95;;;10.10;89.50;;;;;;5052145;28;20021;-35
2021/05/16 01:16:12;;;;;;;;;;;10.10;89.60;;;;;;5053555;28;20029;-35
2021/05/16 01:18:38;;;;;;;17.55;4.07;;;10.20;89.10;;;;;;5053638;28;20368;-36
2021/05/16 01:21:04;;;;;;;9.85;3.15;;;10.30;88.20;;;;;;5053304;28;20082;-35
2021/05/16 01:23:37;;;;;;;18.88;5.00;;;10.20;88.80;;;;;;5053187;28;20017;-36
2021/05/16 01:26:03;;;;;;;16.77;3.92;;;10.20;88.60;;;;;;5053127;28;20032;-35
2021/05/16 01:28:29;;;;;;;18.77;5.78;;;10.20;88.70;;;;;;5053427;28;20025;-35
2021/05/16 01:30:54;;;;;;;14.05;4.20;;;10.30;88.20;;;;;;5053513;28;20029;-36
2021/05/16 01:33:21;;;;;;;17.83;4.28;;;10.40;87.60;;;;;;5053631;28;20385;-35
2021/05/16 01:35:47;;;;;;;16.67;4.13;;;10.30;87.90;;;;;;5053030;28;20032;-35
2021/05/16 01:38:14;;;;;;;13.32;3.88;;;10.20;88.10;;;;;;5053535;28;20135;-36
2021/05/16 01:40:40;;;;;;;12.98;3.72;;;10.20;87.90;;;;;;5053492;28;20075;-36
2021/05/16 01:43:09;;;;;;;14.18;3.80;;;10.30;87.70;;;;;;5053310;28;20013;-35
2021/05/16 01:45:35;;;;;;;12.02;3.85;;;10.30;87.80;;;;;;5053042;28;20040;-35
2021/05/16 01:48:00;;;;;;;17.70;4.50;;;10.20;87.80;;;;;;5054359;28;20029;-35
2021/05/16 01:50:30;;;;;;;15.60;4.35;;;10.20;88.00;;;;;;5053005;28;20107;-36
2021/05/16 01:52:56;;;;;;;30.52;6.25;;;10.30;87.30;;;;;;5053330;28;20036;-36
2021/05/16 01:55:22;;;;;;;11.23;3.78;;;10.30;87.90;;;;;;5051749;28;20468;-36
2021/05/16 01:57:49;;;;;;;14.15;3.72;;;10.20;87.60;;;;;;5053108;28;20017;-36
2021/05/16 02:00:26;;;;;;;21.88;6.07;;;10.20;87.70;;;;;;5052979;28;20082;-36
2021/05/16 02:02:53;;;;;;;15.23;3.70;;;10.20;87.40;;;;;;5051752;28;20385;-36
2021/05/16 02:05:19;;;;;;;14.68;3.40;;;10.20;88.10;;;;;;5053274;28;20025;-36
2021/05/16 02:07:45;;;;;;;13.13;3.45;;;10.10;87.70;;;;;;5053301;28;20520;-36
2021/05/16 02:10:11;;;;;;;14.38;4.80;;;10.20;87.70;;;;;;5053364;28;20465;-36
2021/05/16 02:12:37;;;;;;;11.43;3.53;;;10.10;87.90;;;;;;5052971;28;20028;-36
2021/05/16 02:15:03;;;;;;;16.67;3.67;;;10.20;87.30;;;;;;5052806;28;20029;-36
2021/05/16 02:17:29;;;;;;;19.92;4.00;;;10.30;87.00;;;;;;5052805;28;20070;-36
2021/05/16 02:19:55;;;;;;;27.85;5.88;;;10.20;87.20;;;;;;5052936;28;20378;-35
2021/05/16 02:22:21;;;;;;;21.45;4.60;;;10.20;87.50;;;;;;5052824;28;20096;-36
2021/05/16 02:24:47;;;;;;;22.60;5.70;;;10.20;87.00;;;;;;5052876;28;20083;-36
2021/05/16 02:27:12;;;;;;;20.27;4.65;;;10.20;87.10;;;;;;5053817;28;20087;-36
2021/05/16 02:29:38;;;;;;;12.70;3.25;;;10.20;87.40;;;;;;5056827;28;20024;-36
2021/05/16 02:32:06;;;;;;;15.07;3.33;;;10.30;87.60;;;;;;5055502;28;20025;-36
2021/05/16 02:34:32;;;;;;;12.35;3.60;;;10.30;87.30;;;;;;5056830;28;20029;-35
2021/05/16 02:36:58;;;;;;;12.75;3.42;;;10.40;86.80;;;;;;5038659;28;20028;-36
2021/05/16 02:39:24;;;;;;;16.67;3.53;;;10.30;86.90;;;;;;5056994;28;20021;-36
2021/05/16 02:41:50;;;;;;;24.27;5.03;;;10.30;86.80;;;;;;5056699;28;20025;-36
2021/05/16 02:44:18;;;;;;;19.17;4.05;;;10.30;87.30;;;;;;5056822;28;20025;-36
2021/05/16 02:46:44;;;;;;;34.22;7.38;;;10.40;87.00;;;;;;5056740;28;20082;-43
2021/05/16 02:49:09;;;;;;;13.02;3.10;;;10.30;86.80;;;;;;5057205;28;20060;-36
2021/05/16 02:51:36;;;;;;;13.88;3.80;;;10.40;86.50;;;;;;5055080;28;20513;-36
2021/05/16 02:54:03;;;;;;;12.45;3.13;;;10.40;86.50;;;;;;5056545;28;20379;-36
2021/05/16 02:56:29;;;;;;;18.65;3.95;;;10.30;86.40;;;;;;5056472;28;20024;-36
2021/05/16 02:58:55;;;;;;;15.50;3.08;;;10.30;86.20;;;;;;5056188;28;20021;-36
2021/05/16 03:01:20;;;;;;;14.38;3.75;;;10.30;86.00;;;;;;5056265;28;20087;-36
2021/05/16 03:03:46;;;;;;;23.08;4.22;;;10.30;86.10;;;;;;5056250;28;20024;-36
2021/05/16 03:06:12;;;;;;;14.68;2.95;;;10.30;85.70;;;;;;5056225;28;20021;-36
2021/05/16 03:08:38;;;;;;;16.42;3.95;;;10.40;85.70;;;;;;5056067;28;20388;-36
2021/05/16 03:11:04;;;;;;;15.23;4.97;;;10.20;86.20;;;;;;5056102;28;20029;-36
2021/05/16 03:13:30;;;;;;;9.52;2.88;;;10.20;86.60;;;;;;5056700;28;20043;-36
2021/05/16 03:15:56;;;;;;;11.93;4.30;;;10.30;85.70;;;;;;5055802;28;20057;-36
2021/05/16 03:18:22;;;;;;;10.25;2.63;;;10.30;85.50;;;;;;5056201;28;20053;-36
2021/05/16 03:20:48;;;;;;;16.92;3.38;;;10.20;85.70;;;;;;5056091;28;20033;-36
2021/05/16 03:23:14;;;;;;;9.52;2.78;;;10.20;85.50;;;;;;5055971;28;20029;-36
2021/05/16 03:25:39;;;;;;;17.88;3.78;;;10.30;85.40;;;;;;5055993;28;20025;-37
2021/05/16 03:28:06;;;;;;;19.65;3.70;;;10.20;85.30;;;;;;5056153;28;20021;-46
2021/05/16 03:30:32;;;;;;;13.48;3.72;;;10.30;84.90;;;;;;5056039;28;20024;-36
2021/05/16 03:32:58;;;;;;;20.42;5.35;;;10.30;84.70;;;;;;5055840;28;20465;-36
2021/05/16 03:35:24;;;;;;;14.75;3.22;;;10.30;84.30;;;;;;5055541;28;20025;-36
2021/05/16 03:37:50;;;;;;;18.92;4.00;;;10.30;84.90;;;;;;5055448;28;20032;-36
2021/05/16 03:40:16;;;;;;;24.67;4.40;;;10.10;85.50;;;;;;5055442;28;20021;-36
2021/05/16 03:42:42;;;;;;;23.52;3.63;;;10.20;85.30;;;;;;5055972;28;20428;-35
2021/05/16 03:45:09;;;;;;;16.95;3.20;;;10.10;85.20;;;;;;5055672;28;20096;-36
2021/05/16 03:47:36;;;;;;;27.70;3.97;;;10.20;85.10;;;;;;5055426;28;20426;-37
2021/05/16 03:50:03;;;;;;;18.35;4.30;;;10.10;85.20;;;;;;5054103;28;20052;-35
2021/05/16 03:52:29;;;;;;;19.20;3.17;;;10.10;85.40;;;;;;5053951;28;20063;-35
2021/05/16 03:54:55;;;;;;;19.95;3.17;;;10.00;85.20;;;;;;5053874;28;20035;-35
2021/05/16 03:57:24;;;;;;;11.65;2.75;;;10.10;85.30;;;;;;5055811;28;20021;-35
2021/05/16 03:59:51;;;;;;;18.58;3.03;;;10.00;85.50;;;;;;5055000;28;20028;-37
2021/05/16 04:02:17;;;;;;;11.30;3.33;;;10.10;85.30;;;;;;5055051;28;20062;-36
2021/05/16 04:04:43;;;;;;;16.05;3.30;;;10.00;85.70;;;;;;5054953;28;20439;-36
2021/05/16 04:07:09;;;;;;;11.43;2.95;;;9.90;86.10;;;;;;5054923;28;20036;-36
2021/05/16 04:09:35;;;;;;;10.50;3.08;;;10.10;85.50;;;;;;5054893;28;20477;-37
2021/05/16 04:12:00;;;;;;;18.35;4.45;;;10.20;85.10;;;;;;5054751;28;20136;-36
2021/05/16 04:14:28;;;;;;;16.67;3.42;;;10.20;85.10;;;;;;5054678;28;20028;-36
2021/05/16 04:16:53;;;;;;;11.23;2.97;;;10.20;85.00;;;;;;5054951;28;20033;-36
2021/05/16 04:19:19;;;;;;;13.45;3.60;;;10.20;85.50;;;;;;5054625;28;20521;-35
2021/05/16 04:21:45;;;;;;;19.30;3.78;;;10.20;85.40;;;;;;5054700;28;20017;-35
2021/05/16 04:24:11;;;;;;;13.77;3.38;;;10.30;84.70;;;;;;5053322;28;20120;-36
2021/05/16 04:26:37;;;;;;;22.98;3.97;;;10.20;85.00;;;;;;5053340;28;20029;-35
2021/05/16 04:29:03;;;;;;;10.18;2.88;;;10.30;85.50;;;;;;5054811;28;20469;-35
2021/05/16 04:31:29;;;;;;;15.88;4.25;;;10.40;84.80;;;;;;5054762;28;20020;-36
2021/05/16 04:33:55;;;;;;;10.80;2.50;;;10.30;85.30;;;;;;5054302;28;20035;-36
2021/05/16 04:36:21;;;;;;;11.80;3.00;;;10.40;84.70;;;;;;5054389;28;20070;-36
2021/05/16 04:38:48;;;;;;;13.88;3.25;;;10.40;84.10;;;;;;5054325;28;20059;-36
2021/05/16 04:41:14;;;;;;;15.82;2.85;;;10.40;84.90;;;;;;5054132;28;20060;-36
2021/05/16 04:43:40;;;;;;;13.65;3.60;;;10.60;83.80;;;;;;5054360;28;20047;-35
2021/05/16 04:46:06;;;;;;;10.82;3.42;;;10.50;84.50;;;;;;5054033;28;20029;-36
2021/05/16 04:48:32;;;;;;;5.65;1.73;;;10.60;83.60;;;;;;5054238;28;20052;-36
2021/05/16 04:50:57;;;;;;;14.60;3.00;;;10.60;83.60;;;;;;5053946;28;20071;-36
2021/05/16 04:53:27;;;;;;;13.85;3.53;;;10.40;84.20;;;;;;5054326;28;20052;-36
2021/05/16 04:55:53;;;;;;;14.20;2.55;;;10.50;83.70;;;;;;5054225;28;20025;-36
2021/05/16 04:58:18;;;;;;;8.50;2.92;;;10.50;83.60;;;;;;5053989;28;20378;-36
2021/05/16 05:00:44;;;;;;;18.73;3.42;;;10.40;83.70;;;;;;5054020;28;20021;-45
2021/05/16 05:03:10;;;;;;;8.77;2.63;;;10.50;83.90;;;;;;5054172;28;20017;-36
2021/05/16 05:05:36;;;;;;;17.00;4.55;;;10.60;83.40;;;;;;5053798;28;20032;-36
2021/05/16 05:08:02;;;;;;;14.18;2.35;;;10.60;83.70;;;;;;5053753;28;20128;-36
2021/05/16 05:10:27;;;;;;;15.15;3.13;;;10.60;83.30;;;;;;5053731;28;20025;-36
2021/05/16 05:12:53;;;;;;;17.83;3.42;;;10.60;83.80;;;;;;5053987;28;20036;-36
2021/05/16 05:15:18;;;;;;;15.68;3.75;;;10.50;84.20;;;;;;5054320;28;20025;-36
2021/05/16 05:17:44;;;;;;;13.52;4.43;;;10.60;83.90;;;;;;5052390;28;20074;-36
2021/05/16 05:20:11;;;;;;;16.27;4.22;;;10.70;82.90;;;;;;5053609;28;20048;-36
2021/05/16 05:22:37;;;;;;;13.10;3.10;;;10.70;83.30;;;;;;5053424;28;20413;-36
2021/05/16 05:25:04;;;;;;;21.92;5.43;;;10.50;83.70;;;;;;5053512;28;20025;-36
2021/05/16 05:27:29;;;;;;;10.60;3.63;;;10.60;83.80;;;;;;5053249;28;20060;-35
2021/05/16 05:29:55;;;;;;;15.70;6.32;;;10.60;83.40;;;;;;5053348;28;20098;-36
2021/05/16 05:32:20;;;;;;;20.17;5.30;;;10.60;83.80;;;;;;5054150;28;20025;-36
2021/05/16 05:34:46;;;;;;;12.40;5.13;;;10.60;83.90;;;;;;5053342;28;20490;-36
2021/05/16 05:37:12;;;;;;;21.95;5.85;;;10.50;83.70;;;;;;5053330;28;20021;-38
2021/05/16 05:39:38;;;;;;;20.80;5.78;;;10.50;83.90;;;;;;5053290;28;20049;-36
2021/05/16 05:42:04;;;;;;;16.10;4.28;;;10.50;83.60;;;;;;5053201;28;20017;-36
2021/05/16 05:44:29;;;;;;;14.73;5.95;;;10.60;83.70;;;;;;5053830;28;20462;-37
2021/05/16 05:46:55;;;;;;;18.52;5.63;;;10.50;83.20;;;;;;5053081;28;20025;-36
2021/05/16 05:49:23;;;;;;;24.75;6.15;;;10.60;83.40;;;;;;5053245;28;20070;-37
2021/05/16 05:51:49;;;;;;;22.15;7.75;;;10.70;83.60;;;;;;5053000;28;20056;-36
2021/05/16 05:54:14;;;;;;;14.57;5.63;;;10.80;82.90;;;;;;5053432;28;20385;-37
2021/05/16 05:56:40;;;;;;;21.08;5.45;;;10.70;82.60;;;;;;5053251;28;20025;-37
2021/05/16 05:59:06;;;;;;;19.65;6.38;;;10.70;82.70;;;;;;5054106;28;20469;-37
2021/05/16 06:01:32;;;;;;;13.80;5.78;;;10.80;81.90;;;;;;5053590;28;20044;-36
2021/05/16 06:03:58;;;;;;;15.35;4.95;;;10.80;82.20;;;;;;5057507;28;20029;-36
2021/05/16 06:06:23;;;;;;;18.33;7.45;;;10.60;82.80;;;;;;5057404;28;20512;-37
2021/05/16 06:08:49;;;;;;;21.05;7.28;;;10.80;82.40;;;;;;5057399;28;20104;-37
2021/05/16 06:11:15;;;;;;;12.20;6.30;;;10.90;81.80;;;;;;5057343;28;20021;-36
2021/05/16 06:13:41;;;;;;;22.77;7.65;;;10.80;82.10;;;;;;5057471;28;20029;-37
2021/05/16 06:16:06;;;;;;;20.42;6.22;;;10.80;81.50;;;;;;5057715;28;20033;-37
2021/05/16 06:18:33;;;;;;;27.35;6.35;;;10.90;81.30;;;;;;5057515;28;20041;-41
2021/05/16 06:20:58;;;;;;;17.08;5.90;;;11.10;81.50;;;;;;5057487;28;20082;-37
2021/05/16 06:23:33;;;;;;;23.27;7.13;;;11.10;80.80;;;;;;5056923;28;20033;-36
2021/05/16 06:25:58;;;;;;;18.23;5.53;;;11.30;80.70;;;;;;5057134;28;20037;-36
2021/05/16 06:28:24;;;;;;;26.13;6.50;;;11.10;81.30;;;;;;5057508;28;20369;-36
2021/05/16 06:30:50;;;;;;;12.85;5.28;;;11.20;80.40;;;;;;5056974;28;20025;-37
2021/05/16 06:33:15;;;;;;;15.90;6.47;;;11.00;81.30;;;;;;5056698;28;20029;-36
2021/05/16 06:35:41;;;;;;;25.25;7.13;;;11.30;81.20;;;;;;5056384;28;20029;-37
2021/05/16 06:38:06;;;;;;;17.48;6.65;;;11.50;79.40;;;;;;5055412;28;20450;-36
2021/05/16 06:40:34;;;;;;;18.05;6.30;;;11.20;79.90;;;;;;5057207;28;20428;-45
2021/05/16 06:43:03;;;;;;;25.88;9.40;;;11.30;79.80;;;;;;5056893;28;20368;-37
2021/05/16 06:45:28;;;;;;;20.63;9.07;;;11.20;80.10;;;;;;5056967;28;20025;-37
2021/05/16 06:47:54;;;;;;;15.98;6.25;;;11.30;79.50;;;;;;5056583;28;20044;-37
2021/05/16 06:50:20;;;;;;;16.60;7.57;;;11.40;79.10;;;;;;5056581;28;20044;-37
2021/05/16 06:52:45;;;;;;;21.90;8.73;;;11.20;80.00;;;;;;5056808;28;20025;-36
2021/05/16 06:55:12;;;;;;;23.75;7.95;;;11.30;79.80;;;;;;5056257;28;20029;-36
2021/05/16 06:57:39;;;;;;;19.60;7.38;;;11.50;78.20;;;;;;5055054;28;20025;-35
2021/05/16 07:00:06;;;;;;;19.85;6.53;;;11.70;76.90;;;;;;5054991;28;20028;-35
2021/05/16 07:02:32;;;;;;;22.75;6.70;;;11.50;77.70;;;;;;5056429;28;20096;-36
2021/05/16 07:04:57;;;;;;;22.75;7.65;;;11.60;77.70;;;;;;5056258;28;20057;-37
2021/05/16 07:07:23;;;;;;;19.10;6.38;;;11.70;77.20;;;;;;5056365;28;20035;-35
2021/05/16 07:09:49;;;;;;;22.48;8.10;;;11.80;76.90;;;;;;5056186;28;20488;-36
2021/05/16 07:12:15;;;;;;;27.25;7.88;;;11.80;77.10;;;;;;5055970;28;20075;-35
2021/05/16 07:14:40;;;;;;;21.95;5.88;;;12.00;76.20;;;;;;5055735;28;20021;-35
2021/05/16 07:17:06;;;;;;;22.38;6.70;;;12.10;76.20;;;;;;5056312;28;20067;-36
2021/05/16 07:19:32;;;;;;;14.90;5.13;;;12.10;76.20;;;;;;5055992;28;20013;-38
2021/05/16 07:21:58;;;;;;;25.30;9.05;;;12.10;76.80;;;;;;5054969;28;20017;-37
2021/05/16 07:24:23;;;;;;;23.25;8.30;;;12.00;77.70;;;;;;5056075;28;20044;-37
2021/05/16 07:26:49;;;;;;;25.15;7.57;;;12.30;76.60;;;;;;5055757;28;20025;-37
2021/05/16 07:29:15;;;;;;;12.73;6.55;;;12.30;76.60;;;;;;5055382;28;20032;-36
2021/05/16 07:31:40;;;;;;;17.95;4.95;;;12.10;76.90;;;;;;5055522;28;20025;-36
2021/05/16 07:34:06;;;;;;;20.67;7.40;;;11.90;77.90;;;;;;5055379;28;20025;-37
2021/05/16 07:36:32;;;;;;;15.68;6.07;;;12.00;78.30;;;;;;5055289;28;20012;-37
2021/05/16 07:38:57;;;;;;;19.13;6.00;;;12.10;77.60;;;;;;5055627;28;20025;-37
2021/05/16 07:41:23;;;;;;;13.93;4.85;;;12.20;77.30;;;;;;5055953;28;20029;-37
2021/05/16 07:43:58;;;;;;;13.15;4.80;;;11.80;78.60;;;;;;5055745;28;20017;-37
2021/05/16 07:46:25;;;;;;;14.32;4.80;;;12.00;77.30;;;;;;5056352;28;20529;-36
2021/05/16 07:48:53;;;;;;;19.98;5.80;;;12.10;77.50;;;;;;5055926;28;20025;-37
2021/05/16 07:51:19;;;;;;;17.48;5.80;;;12.10;76.80;;;;;;5053973;28;20374;-37
2021/05/16 07:53:45;;;;;;;18.33;5.63;;;12.00;76.90;;;;;;5055252;28;20025;-37
2021/05/16 07:56:10;;;;;;;19.55;6.50;;;12.10;76.70;;;;;;5055567;28;20075;-37
2021/05/16 07:58:36;;;;;;;11.50;4.38;;;11.90;76.30;;;;;;5055046;28;20100;-37
2021/05/16 08:01:02;;;;;;;16.08;4.68;;;11.80;76.30;;;;;;5054982;28;20021;-43
2021/05/16 08:03:28;;;;;;;18.92;4.43;;;11.80;76.20;;;;;;5055776;28;20025;-36
2021/05/16 08:05:54;;;;;;;17.88;4.38;;;12.10;75.00;;;;;;5054868;28;20064;-36
2021/05/16 08:08:19;;;;;;;25.45;4.30;;;11.80;75.40;;;;;;5054787;28;20045;-37
2021/05/16 08:10:45;;;;;;;18.77;4.07;;;11.80;75.20;;;;;;5055042;28;20021;-37
2021/05/16 08:13:12;;;;;;;11.45;4.25;;;12.60;73.20;;;;;;5054830;28;20029;-36
2021/05/16 08:15:38;;;;;;;15.10;4.93;;;13.20;71.20;;;;;;5055052;28;20021;-37
2021/05/16 08:18:04;;;;;;;16.67;4.88;;;13.50;68.60;;;;;;5054878;28;20029;-37
2021/05/16 08:20:30;;;;;;;15.20;3.92;;;13.50;68.60;;;;;;5054858;28;20025;-37
2021/05/16 08:22:56;;;;;;;16.42;4.38;;;13.90;67.60;;;;;;5054693;28;20024;-36
2021/05/16 08:25:22;;;;;;;18.52;5.05;;;13.00;69.50;;;;;;5053390;28;20059;-36
2021/05/16 08:27:50;;;;;;;23.20;4.85;;;12.90;70.60;;;;;;5054270;28;20104;-36
2021/05/16 08:30:16;;;;;;;9.95;3.20;;;13.20;70.70;;;;;;5054626;28;20431;-36
2021/05/16 08:32:43;;;;;;;12.98;4.10;;;13.90;69.20;;;;;;5054310;28;20021;-36
2021/05/16 08:35:09;;;;;;;18.20;4.68;;;13.80;68.00;;;;;;5054167;28;20112;-36
2021/05/16 08:37:35;;;;;;;17.23;4.90;;;13.70;68.60;;;;;;5054121;28;20465;-36
2021/05/16 08:40:03;;;;;;;14.98;5.45;;;13.40;70.50;;;;;;5053812;28;20086;-35
2021/05/16 08:42:29;;;;;;;21.65;5.60;;;12.60;74.00;;;;;;5053678;28;20017;-36
2021/05/16 08:44:55;;;;;;;21.95;4.47;;;12.90;73.00;;;;;;5053943;28;20135;-36
2021/05/16 08:47:22;;;;;;;28.83;4.85;;;13.50;71.70;;;;;;5036354;28;20032;-37
2021/05/16 08:49:47;;;;;;;15.50;4.72;;;13.80;70.10;;;;;;5054115;28;20025;-36
2021/05/16 08:52:14;;;;;;;17.40;5.30;;;13.60;70.30;;;;;;5052766;28;20036;-35
2021/05/16 08:54:40;;;;;;;11.65;4.30;;;13.10;72.40;;;;;;5053777;28;20029;-35
2021/05/16 08:57:06;;;;;;;22.02;5.25;;;12.80;74.50;;;;;;5053772;28;20028;-38
2021/05/16 08:59:32;;;;;;;17.08;4.85;;;12.60;74.40;;;;;;5054031;28;20396;-36
2021/05/16 09:01:59;;;;;;;20.08;5.07;;;13.30;71.70;;;;;;5054418;28;20017;-37
2021/05/16 09:04:25;;;;;;;22.08;5.15;;;14.10;68.90;;;;;;5053274;28;20473;-36
2021/05/16 09:06:53;;;;;;;17.80;4.47;;;13.50;69.70;;;;;;5053901;28;20035;-37
2021/05/16 09:09:25;;;;;;;9.68;3.35;;;13.30;71.70;;;;;;5053915;28;20025;-37
2021/05/16 09:12:00;;;;;;;10.27;3.55;;;14.00;68.60;;;;;;5053652;28;20024;-36
2021/05/16 09:14:44;;;;;;;14.65;4.00;;;14.60;66.20;;;;;;5052720;28;20025;-37
2021/05/16 09:17:39;;;;;;;15.13;4.38;;;14.40;67.70;;;;;;5053799;28;20021;-37
2021/05/16 09:20:09;;;;;;;14.20;5.35;;;14.30;68.30;;;;;;5053385;28;20037;-36
2021/05/16 09:22:39;;;;;;;13.43;3.90;;;13.50;71.70;;;;;;5052495;28;20075;-36
2021/05/16 09:25:26;;;;;;;17.02;5.43;;;12.80;77.70;;;;;;5053490;28;20389;-36
2021/05/16 09:28:04;;;;;;;14.70;4.43;;;11.80;80.80;;;;;;5052438;28;20537;-36
2021/05/16 09:30:34;;;;;;;17.45;6.05;;;11.50;82.50;;;;;;5053457;28;20025;-36
2021/05/16 09:33:06;;;;;;;;;;;11.30;82.90;;;;;;5053910;28;20162;-36
2021/05/16 09:35:39;;;;;;;7.60;3.10;;;11.20;83.60;;;;;;5053076;28;20025;-36
2021/05/16 09:38:13;;;;;;;14.35;3.95;;;11.50;82.90;;;;;;5053114;28;20021;-37
2021/05/16 09:40:48;;;;;;;13.20;4.97;;;11.70;84.00;;;;;;5053264;28;20307;-36
2021/05/16 09:43:25;;;;;;;10.60;3.30;;;12.30;82.40;;;;;;5053823;28;20021;-36
2021/05/16 09:45:56;;;;;;;29.92;6.70;;;13.60;77.20;;;;;;5053496;28;20488;-37
2021/05/16 09:48:32;;;;;;;13.50;2.80;;;14.60;75.20;;;;;;5052520;28;20060;-37
2021/05/16 09:51:11;;;;;;;15.45;3.50;;;14.20;73.80;;;;;;5052959;28;20172;-36
2021/05/16 09:53:54;;;;;;;5.65;2.97;;;13.40;79.20;;;;;;5053097;28;20025;-37
2021/05/16 09:56:28;;;;;;;5.18;2.28;;;13.20;79.40;;;;;;5053510;28;20021;-37
2021/05/16 09:58:56;;;;;;;8.23;1.92;;;12.70;79.70;;;;;;5053643;28;20044;-37
2021/05/16 10:01:24;;;;;;;6.65;2.10;;;12.40;82.00;;;;;;5053456;28;20466;-37
2021/05/16 10:03:50;;;;;;;5.15;2.15;;;13.40;79.80;;;;;;5053261;28;20025;-37
2021/05/16 10:06:20;;;;;;;3.85;1.42;;;13.90;75.70;;;;;;5053591;28;20485;-37
2021/05/16 10:08:48;;;;;;;8.45;1.70;;;14.90;73.00;;;;;;5054733;28;20029;-36
2021/05/16 10:11:19;;;;;;;7.82;2.15;;;16.20;67.50;;;;;;5053550;28;20041;-35
2021/05/16 10:14:06;;;;;;;9.52;3.65;;;15.90;66.40;;;;;;5051907;28;20155;-37
2021/05/16 10:16:43;;;;;;;5.63;4.20;;;15.30;66.80;;;;;;5053074;28;20045;-36
2021/05/16 10:19:23;;;;;;;6.60;2.20;;;15.70;66.90;;;;;;5053399;28;20466;-36
2021/05/16 10:22:07;;;;;;;9.05;2.00;;;17.00;63.90;;;;;;5052883;28;20025;-35
2021/05/16 10:24:50;;;;;;;7.13;2.33;;;15.40;67.90;;;;;;5052692;28;20128;-36
2021/05/16 10:27:15;;;;;;;4.45;2.45;;;14.20;74.20;;;;;;5052913;28;20025;-37
2021/05/16 10:29:52;;;;;;;11.88;2.88;;;14.00;73.70;;;;;;5053283;28;20047;-37
2021/05/16 10:32:34;;;;;;;14.68;3.75;;;13.80;76.80;;;;;;5052681;28;20021;-37
2021/05/16 10:35:02;;;;;;;14.50;3.80;;;14.90;71.60;;;;;;5053210;28;20033;-37
2021/05/16 10:37:50;;;;;;;10.73;2.90;;;16.00;67.80;;;;;;5051318;28;20021;-38
2021/05/16 10:40:27;;;;;;;13.52;2.65;;;16.80;64.10;;;;;;5051671;28;20021;-36
2021/05/16 10:42:54;;;;;;;20.08;5.10;;;16.80;59.50;;;;;;5052938;28;20033;-36
2021/05/16 10:45:34;;;;;;;8.30;2.70;;;17.80;61.00;;;;;;5052678;28;20028;-37
2021/05/16 10:48:20;;;;;;;9.07;2.63;;;17.70;60.10;;;;;;5053726;28;20370;-37
2021/05/16 10:50:57;;;;;;;12.60;2.78;;;17.80;56.70;;;;;;5056194;28;20381;-37
2021/05/16 10:53:28;;;;;;;8.63;3.45;;;17.80;56.90;;;;;;5056471;28;20036;-38
2021/05/16 10:56:14;;;;;;;11.60;3.42;;;17.70;57.20;;;;;;5056389;28;20083;-38
2021/05/16 10:58:41;;;;;;;15.35;3.13;;;17.00;56.70;;;;;;5056665;28;20055;-38
2021/05/16 11:01:09;;;;;;;8.55;2.63;;;16.10;60.50;;;;;;5056146;28;20029;-38
2021/05/16 11:04:02;;;;;;;11.75;2.28;;;17.40;59.60;;;;;;5056761;28;20074;-36
2021/05/16 11:06:30;;;;;;;13.70;3.22;;;17.20;54.70;;;;;;5056032;28;20037;-35
2021/05/16 11:08:59;;;;;;;6.28;2.08;;;18.00;55.90;;;;;;5056063;28;20082;-35
2021/05/16 11:11:50;;;;;;;10.20;3.00;;;17.90;53.10;;;;;;5055721;28;20032;-36
2021/05/16 11:14:20;;;;;;;10.10;3.05;;;17.00;56.40;;;;;;5054627;28;20025;-36
2021/05/16 11:17:02;;;;;;;3.15;1.70;;;15.80;59.60;;;;;;5054642;28;20095;-35
2021/05/16 11:19:30;;;;;;;7.53;2.10;;;14.00;66.50;;;;;;5055883;28;20021;-35
2021/05/16 11:21:57;;;;;;;7.53;1.85;;;13.70;67.80;;;;;;5056805;28;20021;-37
2021/05/16 11:24:36;;;;;;;4.55;2.08;;;13.30;72.30;;;;;;5056044;28;20440;-36
2021/05/16 11:27:11;;;;;;;7.28;2.05;;;12.30;78.10;;;;;;5055739;28;20060;-36
2021/05/16 11:29:37;;;;;;;4.60;2.05;;;12.40;79.90;;;;;;5055965;28;20021;-35
2021/05/16 11:32:04;;;;;;;7.60;1.90;;;12.80;78.00;;;;;;5055599;28;20428;-36
2021/05/16 11:34:31;;;;;;;5.97;2.10;;;12.90;78.10;;;;;;5056061;28;20033;-37
2021/05/16 11:37:15;;;;;;;3.05;1.55;;;12.90;76.50;;;;;;5054485;28;20021;-38
2021/05/16 11:39:40;;;;;;;4.72;1.77;;;13.00;76.30;;;;;;5021583;28;20435;-36
2021/05/16 11:42:06;;;;;;;4.13;1.17;;;13.40;75.00;;;;;;5054150;28;20096;-36
2021/05/16 11:44:32;;;;;;;7.10;1.80;;;14.50;70.50;;;;;;5055745;28;20021;-36
2021/05/16 11:46:57;;;;;;;5.28;1.80;;;15.60;66.60;;;;;;5054227;28;20032;-36
2021/05/16 11:49:32;;;;;;;2.42;1.55;;;15.80;63.70;;;;;;5055549;28;20083;-38
2021/05/16 11:51:59;;;;;;;3.88;1.30;;;16.00;64.40;;;;;;5055008;28;20072;-38
2021/05/16 11:54:26;;;;;;;3.03;1.33;;;15.50;65.70;;;;;;5055481;28;20040;-38
2021/05/16 11:56:52;;;;;;;10.15;1.80;;;14.90;66.00;;;;;;5055211;28;20057;-37
2021/05/16 11:59:18;;;;;;;7.60;1.50;;;14.80;65.60;;;;;;5055406;28;20052;-37
2021/05/16 12:01:47;;;;;;;5.95;2.25;;;14.90;66.10;;;;;;5055214;28;20017;-36
2021/05/16 12:04:16;;;;;;;3.80;2.03;;;15.20;65.10;;;;;;5055117;28;20022;-36
2021/05/16 12:06:45;;;;;;;6.90;1.77;;;15.20;62.10;;;;;;5053522;28;20028;-37
2021/05/16 12:09:15;;;;;;;6.70;1.60;;;16.00;58.50;;;;;;5054061;28;20021;-37
2021/05/16 12:11:47;;;;;;;2.80;1.60;;;15.70;56.00;;;;;;5021221;28;20029;-37
2021/05/16 12:14:22;;;;;;;2.45;1.40;;;16.00;54.80;;;;;;5054347;28;20103;-37
2021/05/16 12:17:00;;;;;;;10.38;1.40;;;15.20;55.40;;;;;;5054837;28;20056;-37
2021/05/16 12:19:39;;;;;;;2.97;1.55;;;14.80;57.10;;;;;;5053431;28;20428;-37
2021/05/16 12:22:13;;;;;;;9.40;2.35;;;15.10;58.50;;;;;;5037560;28;20044;-37
2021/05/16 12:24:47;;;;;;;5.53;1.58;;;16.50;55.20;;;;;;5054010;28;20036;-37
2021/05/16 12:27:15;;;;;;;3.33;1.35;;;17.30;52.70;;;;;;5053179;28;20033;-37
2021/05/16 12:29:43;;;;;;;8.52;1.40;;;18.40;50.70;;;;;;5036409;28;20029;-37
2021/05/16 12:32:10;;;;;;;4.55;1.92;;;18.00;50.30;;;;;;5054386;28;20456;-38
2021/05/16 12:34:37;;;;;;;6.60;2.00;;;17.50;51.50;;;;;;5053176;28;20029;-38
2021/05/16 12:37:24;;;;;;;4.93;1.95;;;17.80;51.50;;;;;;5053243;28;20047;-37
2021/05/16 12:39:52;;;;;;;6.20;1.70;;;19.10;48.20;;;;;;5053258;28;20488;-38
2021/05/16 12:42:33;;;;;;;10.63;2.53;;;18.90;46.50;;;;;;5053303;28;20021;-37
2021/05/16 12:45:18;;;;;;;;;;;19.30;45.90;;;;;;5053344;28;20029;-38